createdAt,value
2023-02-01T00:01:14.219Z,1.73
2023-02-01T00:03:41.839Z,1.80
2023-02-01T00:06:10.942Z,2.10
2023-02-01T00:08:38.702Z,1.93
2023-02-01T00:11:09.649Z,2.10
2023-02-01T00:13:39.639Z,2.00
2023-02-01T00:16:08.446Z,2.07
2023-02-01T00:18:36.848Z,2.20
2023-02-01T00:21:05.381Z,1.90
2023-02-01T00:23:34.876Z,1.80
2023-02-01T00:26:02.611Z,2.07
2023-02-01T00:28:31.842Z,2.10
2023-02-01T00:31:01.166Z,1.90
2023-02-01T00:33:29.452Z,2.27
2023-02-01T00:35:59.456Z,2.00
2023-02-01T00:38:26.992Z,2.20
2023-02-01T00:40:54.617Z,2.07
2023-02-01T00:43:22.499Z,2.10
2023-02-01T00:45:51.379Z,2.27
2023-02-01T00:48:18.930Z,2.23
2023-02-01T00:50:46.851Z,2.03
2023-02-01T00:53:14.525Z,2.03
2023-02-01T00:55:42.156Z,2.50
2023-02-01T00:58:10.297Z,2.53
2023-02-01T01:00:37.935Z,2.40
2023-02-01T01:03:18.374Z,2.10
2023-02-01T01:05:46.560Z,2.50
2023-02-01T01:08:14.146Z,2.27
2023-02-01T01:10:43.363Z,2.50
2023-02-01T01:13:11.180Z,2.60
2023-02-01T01:15:39.737Z,2.53
2023-02-01T01:18:09.469Z,2.50
2023-02-01T01:20:38.357Z,3.07
2023-02-01T01:23:06.385Z,3.03
2023-02-01T01:25:34.326Z,2.73
2023-02-01T01:28:01.901Z,2.90
2023-02-01T01:30:29.642Z,2.87
2023-02-01T01:32:57.346Z,2.83
2023-02-01T01:35:26.338Z,3.03
2023-02-01T01:37:53.916Z,3.10
2023-02-01T01:40:22.235Z,3.63
2023-02-01T01:42:54.164Z,3.50
2023-02-01T01:45:28.279Z,2.93
2023-02-01T01:47:59.070Z,2.50
2023-02-01T01:50:30.949Z,2.90
2023-02-01T01:53:02.506Z,3.00
2023-02-01T01:55:34.107Z,3.37
2023-02-01T01:58:06.662Z,3.77
2023-02-01T02:00:35.195Z,3.00
2023-02-01T02:03:10.893Z,3.10
2023-02-01T02:05:40.295Z,2.80
2023-02-01T02:08:07.894Z,3.37
2023-02-01T02:10:53.340Z,2.80
2023-02-01T02:13:21.316Z,2.60
2023-02-01T02:16:03.035Z,2.90
2023-02-01T02:18:42.242Z,3.00
2023-02-01T02:21:19.782Z,3.07
2023-02-01T02:24:10.361Z,3.23
2023-02-01T02:27:23.988Z,3.27
2023-02-01T02:30:25.722Z,3.30
2023-02-01T02:33:24.111Z,2.80
2023-02-01T02:36:06.107Z,3.40
2023-02-01T02:38:42.888Z,3.30
2023-02-01T02:41:41.308Z,3.93
2023-02-01T02:44:33.130Z,3.10
2023-02-01T02:47:28.363Z,3.47
2023-02-01T02:50:22.593Z,4.07
2023-02-01T02:53:15.577Z,3.60
2023-02-01T02:55:44.144Z,4.10
2023-02-01T02:58:32.168Z,3.00
2023-02-01T03:01:17.461Z,3.87
2023-02-01T03:04:09.705Z,3.80
2023-02-01T03:06:40.680Z,3.70
2023-02-01T03:09:15.446Z,3.50
2023-02-01T03:12:05.347Z,3.33
2023-02-01T03:14:37.215Z,3.80
2023-02-01T03:17:10.637Z,3.87
2023-02-01T03:19:44.487Z,3.17
2023-02-01T03:22:18.257Z,3.30
2023-02-01T03:24:48.678Z,3.20
2023-02-01T03:27:22.578Z,3.13
2023-02-01T03:29:54.673Z,3.27
2023-02-01T03:32:22.366Z,2.87
2023-02-01T03:34:51.972Z,2.73
2023-02-01T03:37:26.050Z,2.80
2023-02-01T03:39:58.881Z,4.03
2023-02-01T03:42:35.244Z,2.73
2023-02-01T03:45:09.907Z,2.80
2023-02-01T03:47:41.285Z,3.20
2023-02-01T03:50:13.258Z,3.10
2023-02-01T03:52:45.761Z,2.70
2023-02-01T03:55:16.702Z,2.40
2023-02-01T03:57:52.664Z,2.93
2023-02-01T04:00:24.391Z,2.33
2023-02-01T04:02:53.629Z,2.13
2023-02-01T04:05:22.050Z,2.60
2023-02-01T04:07:51.026Z,2.60
2023-02-01T04:10:19.823Z,2.47
2023-02-01T04:12:48.700Z,2.50
2023-02-01T04:15:16.621Z,3.10
2023-02-01T04:17:44.360Z,2.40
2023-02-01T04:20:12.715Z,2.13
2023-02-01T04:22:40.392Z,2.60
2023-02-01T04:25:10.164Z,3.20
2023-02-01T04:27:37.730Z,2.80
2023-02-01T04:30:10.935Z,2.90
2023-02-01T04:32:40.190Z,4.30
2023-02-01T04:35:08.983Z,2.20
2023-02-01T04:37:37.140Z,2.57
2023-02-01T04:40:07.962Z,3.20
2023-02-01T04:42:36.913Z,3.30
2023-02-01T04:45:05.114Z,2.43
2023-02-01T04:47:32.775Z,2.20
2023-02-01T04:50:00.380Z,3.17
2023-02-01T04:52:28.332Z,4.07
2023-02-01T04:54:59.307Z,2.77
2023-02-01T04:57:27.650Z,3.17
2023-02-01T04:59:56.881Z,3.10
2023-02-01T05:02:25.453Z,2.53
2023-02-01T05:04:53.109Z,2.33
2023-02-01T05:07:21.124Z,2.63
2023-02-01T05:09:48.767Z,3.03
2023-02-01T05:12:34.235Z,2.73
2023-02-01T05:15:06.606Z,2.90
2023-02-01T05:17:35.842Z,2.93
2023-02-01T05:20:03.577Z,3.17
2023-02-01T05:22:31.253Z,2.60
2023-02-01T05:24:58.838Z,2.47
2023-02-01T05:27:26.944Z,4.27
2023-02-01T05:29:54.604Z,8.00
2023-02-01T05:32:25.933Z,6.50
2023-02-01T05:34:53.781Z,8.30
2023-02-01T05:37:21.368Z,4.77
2023-02-01T05:39:48.990Z,4.73
2023-02-01T05:42:16.655Z,3.27
2023-02-01T05:44:44.288Z,3.80
2023-02-01T05:47:12.146Z,3.00
2023-02-01T05:49:41.125Z,2.77
2023-02-01T05:52:08.856Z,5.60
2023-02-01T05:54:36.393Z,2.77
2023-02-01T05:57:04.141Z,2.43
2023-02-01T05:59:31.875Z,2.60
2023-02-01T06:01:59.995Z,2.43
2023-02-01T06:04:28.118Z,2.63
2023-02-01T06:06:57.054Z,2.57
2023-02-01T06:09:25.583Z,2.80
2023-02-01T06:11:53.210Z,2.30
2023-02-01T06:14:21.264Z,2.47
2023-02-01T06:16:51.177Z,3.03
2023-02-01T06:19:19.081Z,2.10
2023-02-01T06:21:46.774Z,2.20
2023-02-01T06:24:18.700Z,2.97
2023-02-01T06:26:50.338Z,2.90
2023-02-01T06:29:18.264Z,3.03
2023-02-01T06:31:51.740Z,2.13
2023-02-01T06:34:22.297Z,2.17
2023-02-01T06:36:50.779Z,2.60
2023-02-01T06:39:20.335Z,2.37
2023-02-01T06:41:48.963Z,2.57
2023-02-01T06:44:16.855Z,1.73
2023-02-01T06:46:44.705Z,2.57
2023-02-01T06:49:14.141Z,2.50
2023-02-01T06:51:41.895Z,2.63
2023-02-01T06:54:09.724Z,2.40
2023-02-01T06:56:39.510Z,2.60
2023-02-01T06:59:07.805Z,2.33
2023-02-01T07:01:36.473Z,2.60
2023-02-01T07:04:05.454Z,2.13
2023-02-01T07:06:33.082Z,2.00
2023-02-01T07:09:01.569Z,2.30
2023-02-01T07:11:29.305Z,2.40
2023-02-01T07:14:00.565Z,2.47
2023-02-01T07:16:28.718Z,2.60
2023-02-01T07:18:56.248Z,2.07
2023-02-01T07:21:23.921Z,2.33
2023-02-01T07:23:53.873Z,2.43
2023-02-01T07:26:21.892Z,2.07
2023-02-01T07:28:49.973Z,2.37
2023-02-01T07:31:22.524Z,2.20
2023-02-01T07:33:52.462Z,2.73
2023-02-01T07:36:21.020Z,2.60
2023-02-01T07:38:49.006Z,2.00
2023-02-01T07:41:17.107Z,1.90
2023-02-01T07:43:44.767Z,2.10
2023-02-01T07:46:12.963Z,1.87
2023-02-01T07:48:41.963Z,2.07
2023-02-01T07:51:12.428Z,2.23
2023-02-01T07:53:40.729Z,1.80
2023-02-01T07:56:13.767Z,2.30
2023-02-01T07:58:41.414Z,2.00
2023-02-01T08:01:22.420Z,1.97
2023-02-01T08:03:52.965Z,2.03
2023-02-01T08:06:21.408Z,1.90
2023-02-01T08:08:49.040Z,2.10
2023-02-01T08:11:17.780Z,1.93
2023-02-01T08:13:45.549Z,2.10
2023-02-01T08:16:14.617Z,2.10
2023-02-01T08:18:42.792Z,2.57
2023-02-01T08:21:18.910Z,1.97
2023-02-01T08:23:46.952Z,2.23
2023-02-01T08:26:17.322Z,2.10
2023-02-01T08:28:47.018Z,2.23
2023-02-01T08:31:16.688Z,2.00
2023-02-01T08:33:45.946Z,2.20
2023-02-01T08:36:14.813Z,2.50
2023-02-01T08:38:42.579Z,1.63
2023-02-01T08:41:12.543Z,2.10
2023-02-01T08:43:40.281Z,2.70
2023-02-01T08:46:08.994Z,1.80
2023-02-01T08:48:37.307Z,1.67
2023-02-01T08:51:06.650Z,3.07
2023-02-01T08:53:36.943Z,2.57
2023-02-01T08:56:04.937Z,2.57
2023-02-01T08:58:32.481Z,2.50
2023-02-01T09:01:05.014Z,2.33
2023-02-01T09:03:32.789Z,2.20
2023-02-01T09:06:03.511Z,2.13
2023-02-01T09:08:31.493Z,2.43
2023-02-01T09:11:04.530Z,2.10
2023-02-01T09:13:32.788Z,2.30
2023-02-01T09:16:01.003Z,2.00
2023-02-01T09:18:28.783Z,2.23
2023-02-01T09:20:56.351Z,2.40
2023-02-01T09:23:23.959Z,2.60
2023-02-01T09:25:55.310Z,2.50
2023-02-01T09:28:24.249Z,2.03
2023-02-01T09:30:51.963Z,2.17
2023-02-01T09:33:19.641Z,2.03
2023-02-01T09:35:47.261Z,1.67
2023-02-01T09:38:14.833Z,2.40
2023-02-01T09:40:47.064Z,2.17
2023-02-01T09:43:32.655Z,2.23
2023-02-01T09:46:12.115Z,1.97
2023-02-01T09:48:44.008Z,2.03
2023-02-01T09:51:17.182Z,2.47
2023-02-01T09:53:48.868Z,1.80
2023-02-01T09:56:22.933Z,2.37
2023-02-01T09:59:02.756Z,2.00
2023-02-01T10:01:31.276Z,1.70
2023-02-01T10:04:04.811Z,2.00
2023-02-01T10:06:43.992Z,2.30
2023-02-01T10:09:21.359Z,2.27
2023-02-01T10:12:04.206Z,2.03
2023-02-01T10:14:47.579Z,2.30
2023-02-01T10:17:28.149Z,1.63
2023-02-01T10:20:08.329Z,2.53
2023-02-01T10:23:10.278Z,2.13
2023-02-01T10:25:39.069Z,2.03
2023-02-01T10:28:06.711Z,2.23
2023-02-01T10:30:45.166Z,2.27
2023-02-01T10:33:18.945Z,2.23
2023-02-01T10:35:48.249Z,2.13
2023-02-01T10:38:26.513Z,2.10
2023-02-01T10:40:57.096Z,1.80
2023-02-01T10:43:24.678Z,1.63
2023-02-01T10:45:53.817Z,2.90
2023-02-01T10:48:21.649Z,2.30
2023-02-01T10:50:55.799Z,2.07
2023-02-01T10:53:27.842Z,1.97
2023-02-01T10:55:56.617Z,1.63
2023-02-01T10:58:30.333Z,2.20
2023-02-01T11:01:04.414Z,2.03
2023-02-01T11:03:55.380Z,2.40
2023-02-01T11:06:31.850Z,1.93
2023-02-01T11:09:01.595Z,2.07
2023-02-01T11:11:30.051Z,1.57
2023-02-01T11:13:59.620Z,2.00
2023-02-01T11:16:38.451Z,1.60
2023-02-01T11:19:07.266Z,1.70
2023-02-01T11:21:36.521Z,2.80
2023-02-01T11:24:07.741Z,2.40
2023-02-01T11:26:35.408Z,2.57
2023-02-01T11:29:07.373Z,1.60
2023-02-01T11:31:37.244Z,1.70
2023-02-01T11:34:10.785Z,2.03
2023-02-01T11:36:39.536Z,2.00
2023-02-01T11:39:20.596Z,1.60
2023-02-01T11:41:59.203Z,2.00
2023-02-01T11:44:33.305Z,1.73
2023-02-01T11:47:25.028Z,1.93
2023-02-01T11:49:54.544Z,1.90
2023-02-01T11:52:46.010Z,1.60
2023-02-01T11:55:28.027Z,2.00
2023-02-01T11:58:08.270Z,2.00
2023-02-01T12:00:51.198Z,2.00
2023-02-01T12:04:03.475Z,1.80
2023-02-01T12:06:39.922Z,2.23
2023-02-01T12:09:31.440Z,2.37
2023-02-01T12:12:07.690Z,2.07
2023-02-01T12:14:57.287Z,1.73
2023-02-01T12:17:58.790Z,2.33
2023-02-01T12:20:47.162Z,2.70
2023-02-01T12:23:29.303Z,2.10
2023-02-01T12:26:09.497Z,1.97
2023-02-01T12:29:03.635Z,2.27
2023-02-01T12:31:53.816Z,2.27
2023-02-01T12:34:42.158Z,2.83
2023-02-01T12:37:21.710Z,1.77
2023-02-01T12:40:09.674Z,2.13
2023-02-01T12:42:42.806Z,2.27
2023-02-01T12:45:17.232Z,2.40
2023-02-01T12:47:51.599Z,2.33
2023-02-01T12:50:26.628Z,1.73
2023-02-01T12:52:59.949Z,1.90
2023-02-01T12:55:37.564Z,2.20
2023-02-01T12:58:13.987Z,2.10
2023-02-01T13:00:46.154Z,2.10
2023-02-01T13:03:21.701Z,1.43
2023-02-01T13:05:55.103Z,2.00
2023-02-01T13:08:27.822Z,1.70
2023-02-01T13:11:01.546Z,1.73
2023-02-01T13:13:40.070Z,2.10
2023-02-01T13:16:18.153Z,2.03
2023-02-01T13:18:51.693Z,2.03
2023-02-01T13:21:24.672Z,2.63
2023-02-01T13:23:55.294Z,1.40
2023-02-01T13:26:23.251Z,1.70
2023-02-01T13:28:54.203Z,2.30
2023-02-01T13:31:34.715Z,2.00
2023-02-01T13:34:33.683Z,1.87
2023-02-01T13:37:24.653Z,2.00
2023-02-01T13:40:07.005Z,2.20
2023-02-01T13:42:43.639Z,2.20
2023-02-01T13:45:17.470Z,1.97
2023-02-01T13:47:48.107Z,1.90
2023-02-01T13:50:23.819Z,2.27
2023-02-01T13:52:56.016Z,1.77
2023-02-01T13:55:32.067Z,1.80
2023-02-01T13:58:20.584Z,2.00
2023-02-01T14:00:49.308Z,2.50
2023-02-01T14:03:19.726Z,2.10
2023-02-01T14:06:05.689Z,1.90
2023-02-01T14:09:15.044Z,2.40
2023-02-01T14:11:47.168Z,2.20
2023-02-01T14:14:45.544Z,1.70
2023-02-01T14:17:38.187Z,1.30
2023-02-01T14:20:51.889Z,2.03
2023-02-01T14:23:26.172Z,1.97
2023-02-01T14:26:22.250Z,1.50
2023-02-01T14:29:04.200Z,2.20
2023-02-01T14:31:37.370Z,2.00
2023-02-01T14:34:14.875Z,2.00
2023-02-01T14:36:46.800Z,1.97
2023-02-01T14:39:42.190Z,1.77
2023-02-01T14:42:24.422Z,1.67
2023-02-01T14:44:58.635Z,1.97
2023-02-01T14:47:32.812Z,1.90
2023-02-01T14:50:20.560Z,1.50
2023-02-01T14:52:51.984Z,1.60
2023-02-01T14:55:24.161Z,1.60
2023-02-01T14:57:55.514Z,1.63
2023-02-01T15:00:27.082Z,1.70
2023-02-01T15:02:58.078Z,1.57
2023-02-01T15:05:32.656Z,1.73
2023-02-01T15:08:06.602Z,1.80
2023-02-01T15:10:42.192Z,2.40
2023-02-01T15:13:21.633Z,2.27
2023-02-01T15:16:07.476Z,2.63
2023-02-01T15:18:35.263Z,1.57
2023-02-01T15:21:28.159Z,1.80
2023-02-01T15:23:52.855Z,2.23
2023-02-01T15:26:27.884Z,1.80
2023-02-01T15:28:55.548Z,1.50
2023-02-01T15:31:41.512Z,1.90
2023-02-01T15:34:12.667Z,1.90
2023-02-01T15:36:45.776Z,2.10
2023-02-01T15:39:26.691Z,2.13
2023-02-01T15:41:58.009Z,1.40
2023-02-01T15:44:35.556Z,1.83
2023-02-01T15:47:15.452Z,1.83
2023-02-01T15:49:45.562Z,1.87
2023-02-01T15:52:22.714Z,2.20
2023-02-01T15:54:54.227Z,2.57
2023-02-01T15:57:31.078Z,2.17
2023-02-01T16:00:00.528Z,1.57
2023-02-01T16:02:36.044Z,2.10
2023-02-01T16:05:04.576Z,1.90
2023-02-01T16:07:35.454Z,1.70
2023-02-01T16:10:19.902Z,2.57
2023-02-01T16:12:49.223Z,1.47
2023-02-01T16:15:17.231Z,1.70
2023-02-01T16:17:46.812Z,1.73
2023-02-01T16:20:15.004Z,1.37
2023-02-01T16:22:42.696Z,1.20
2023-02-01T16:25:10.702Z,2.10
2023-02-01T16:27:39.654Z,2.50
2023-02-01T16:30:10.715Z,1.77
2023-02-01T16:32:39.983Z,1.73
2023-02-01T16:35:20.037Z,1.53
2023-02-01T16:37:47.794Z,2.03
2023-02-01T16:40:16.299Z,2.10
2023-02-01T16:42:44.355Z,2.37
2023-02-01T16:45:12.783Z,1.40
2023-02-01T16:47:45.425Z,1.50
2023-02-01T16:50:23.347Z,1.37
2023-02-01T16:52:54.843Z,1.70
2023-02-01T16:55:26.309Z,2.07
2023-02-01T16:57:54.200Z,1.80
2023-02-01T17:00:25.106Z,1.90
2023-02-01T17:02:53.703Z,1.53
2023-02-01T17:05:23.327Z,1.70
2023-02-01T17:07:51.448Z,1.57
2023-02-01T17:10:33.935Z,1.40
2023-02-01T17:13:03.586Z,1.67
2023-02-01T17:15:36.752Z,2.50
2023-02-01T17:18:05.053Z,2.27
2023-02-01T17:20:34.599Z,1.70
2023-02-01T17:23:04.473Z,1.20
2023-02-01T17:25:32.920Z,1.90
2023-02-01T17:28:00.952Z,1.63
2023-02-01T17:30:28.833Z,2.40
2023-02-01T17:32:56.805Z,1.73
2023-02-01T17:35:26.646Z,2.07
2023-02-01T17:37:56.459Z,1.73
2023-02-01T17:40:24.458Z,2.13
2023-02-01T17:42:52.187Z,1.83
2023-02-01T17:45:27.946Z,2.17
2023-02-01T17:47:56.381Z,1.50
2023-02-01T17:50:28.261Z,1.63
2023-02-01T17:53:00.201Z,1.83
2023-02-01T17:55:36.229Z,2.00
2023-02-01T17:58:19.541Z,1.80
2023-02-01T18:00:49.253Z,1.80
2023-02-01T18:03:28.002Z,1.50
2023-02-01T18:05:57.371Z,2.30
2023-02-01T18:08:28.463Z,2.43
2023-02-01T18:11:01.013Z,1.50
2023-02-01T18:13:29.383Z,1.50
2023-02-01T18:15:59.102Z,2.03
2023-02-01T18:18:28.213Z,1.97
2023-02-01T18:20:56.131Z,4.60
2023-02-01T18:23:26.696Z,2.13
2023-02-01T18:25:54.446Z,1.70
2023-02-01T18:28:25.040Z,1.90
2023-02-01T18:30:54.331Z,1.70
2023-02-01T18:33:22.472Z,1.83
2023-02-01T18:35:50.343Z,1.80
2023-02-01T18:38:18.264Z,1.80
2023-02-01T18:40:52.199Z,2.20
2023-02-01T18:43:21.583Z,1.83
2023-02-01T18:45:49.852Z,1.90
2023-02-01T18:48:21.168Z,1.63
2023-02-01T18:50:51.792Z,2.13
2023-02-01T18:53:21.723Z,1.90
2023-02-01T18:55:53.404Z,2.47
2023-02-01T18:58:26.110Z,1.60
2023-02-01T19:00:55.967Z,1.70
2023-02-01T19:03:26.860Z,1.90
2023-02-01T19:06:00.583Z,1.70
2023-02-01T19:08:28.975Z,1.73
2023-02-01T19:11:00.702Z,2.10
2023-02-01T19:13:31.581Z,1.90
2023-02-01T19:15:59.612Z,1.60
2023-02-01T19:18:27.323Z,2.37
2023-02-01T19:20:55.126Z,1.90
2023-02-01T19:23:24.092Z,1.73
2023-02-01T19:25:54.330Z,1.83
2023-02-01T19:28:23.265Z,4.77
2023-02-01T19:30:51.488Z,7.27
2023-02-01T19:33:19.239Z,6.13
2023-02-01T19:35:46.906Z,2.47
2023-02-01T19:38:16.894Z,2.10
2023-02-01T19:40:49.714Z,2.00
2023-02-01T19:43:17.633Z,2.20
2023-02-01T19:45:46.654Z,2.10
2023-02-01T19:48:15.676Z,1.97
2023-02-01T19:50:43.409Z,2.47
2023-02-01T19:53:11.292Z,1.93
2023-02-01T19:55:38.924Z,2.60
2023-02-01T19:58:07.848Z,4.20
2023-02-01T20:00:35.961Z,3.43
2023-02-01T20:03:05.509Z,2.20
2023-02-01T20:05:35.365Z,2.97
2023-02-01T20:08:05.999Z,2.00
2023-02-01T20:10:33.558Z,1.93
2023-02-01T20:13:01.119Z,2.43
2023-02-01T20:15:28.695Z,2.20
2023-02-01T20:17:58.192Z,2.00
2023-02-01T20:20:36.165Z,3.53
2023-02-01T20:23:03.916Z,1.60
2023-02-01T20:25:32.821Z,1.57
2023-02-01T20:28:02.132Z,2.60
2023-02-01T20:30:32.245Z,3.23
2023-02-01T20:33:00.141Z,5.47
2023-02-01T20:35:29.434Z,2.80
2023-02-01T20:37:59.046Z,3.63
2023-02-01T20:40:26.824Z,1.80
2023-02-01T20:42:54.843Z,2.43
2023-02-01T20:45:22.621Z,2.00
2023-02-01T20:47:53.671Z,1.90
2023-02-01T20:50:25.331Z,1.40
2023-02-01T20:52:54.550Z,1.50
2023-02-01T20:55:31.404Z,2.13
2023-02-01T20:58:01.938Z,1.73
2023-02-01T21:00:31.458Z,1.80
2023-02-01T21:02:59.317Z,2.20
2023-02-01T21:05:39.991Z,1.60
2023-02-01T21:08:13.949Z,1.60
2023-02-01T21:10:42.941Z,1.93
2023-02-01T21:13:10.913Z,2.40
2023-02-01T21:15:51.118Z,2.30
2023-02-01T21:18:39.185Z,2.17
2023-02-01T21:21:08.213Z,2.00
2023-02-01T21:23:44.858Z,1.70
2023-02-01T21:26:24.648Z,1.80
2023-02-01T21:29:12.941Z,2.17
2023-02-01T21:31:45.957Z,1.50
2023-02-01T21:34:13.896Z,1.87
2023-02-01T21:37:06.232Z,1.70
2023-02-01T21:39:38.744Z,1.97
2023-02-01T21:42:17.968Z,1.50
2023-02-01T21:44:50.689Z,1.50
2023-02-01T21:47:24.027Z,1.90
2023-02-01T21:49:54.978Z,1.50
2023-02-01T21:52:28.927Z,2.23
2023-02-01T21:54:59.732Z,1.73
2023-02-01T21:57:28.744Z,1.93
2023-02-01T22:00:03.523Z,2.53
2023-02-01T22:02:33.037Z,1.80
2023-02-01T22:08:04.643Z,1.90
2023-02-01T22:10:33.843Z,1.53
2023-02-01T22:13:09.163Z,1.77
2023-02-01T22:15:38.044Z,1.80
2023-02-01T22:18:06.047Z,1.40
2023-02-01T22:20:33.674Z,2.03
2023-02-01T22:23:10.470Z,1.50
2023-02-01T22:26:17.441Z,1.90
2023-02-01T22:28:45.724Z,1.60
2023-02-01T22:31:16.991Z,1.63
2023-02-01T22:33:49.310Z,1.90
2023-02-01T22:36:22.711Z,2.37
2023-02-01T22:38:50.281Z,1.67
2023-02-01T22:41:20.489Z,1.77
2023-02-01T22:43:48.750Z,2.20
2023-02-01T22:46:18.137Z,2.03
2023-02-01T22:48:47.601Z,1.80
2023-02-01T22:51:18.226Z,1.50
2023-02-01T22:53:47.685Z,1.53
2023-02-01T22:56:16.141Z,2.00
2023-02-01T22:58:48.026Z,1.80
2023-02-01T23:01:17.531Z,1.83
2023-02-01T23:03:45.364Z,1.60
2023-02-01T23:06:14.184Z,1.80
2023-02-01T23:08:42.043Z,1.73
2023-02-01T23:11:10.872Z,2.27
2023-02-01T23:13:39.100Z,1.50
2023-02-01T23:16:13.815Z,1.43
2023-02-01T23:18:42.582Z,1.57
2023-02-01T23:21:12.705Z,1.57
2023-02-01T23:23:41.988Z,1.50
2023-02-01T23:26:12.188Z,2.53
2023-02-01T23:28:44.202Z,1.63
2023-02-01T23:31:15.317Z,1.37
2023-02-01T23:33:46.203Z,1.40
2023-02-01T23:36:17.465Z,1.67
2023-02-01T23:38:45.998Z,1.37
2023-02-01T23:41:18.328Z,1.47
2023-02-01T23:44:01.199Z,1.23
2023-02-01T23:46:33.464Z,1.20
2023-02-01T23:49:02.498Z,1.10
2023-02-01T23:51:30.826Z,1.63
2023-02-01T23:53:58.728Z,1.60
2023-02-01T23:56:28.641Z,1.30
2023-02-01T23:58:56.814Z,1.60
